Beautrophy — PBNR — position and weather

sailwx.info

Track history (hours):
 
Tides and Currents Weather Stations Pressure Air Temp Water Temp Dewpoint Dewpoint Depression Visibility Wind Speed Wind Dir Waves Ship Positions

Beautrophy

Last reported at 2018-Feb-19 16:08 UTC. Time now 2018-Feb-23 14:38 UTC.
Position N 22°50' E 116°51'.

Length 118 m; draft 4.9 m.

Type: Cargo ship. MMSI: 245916000.

Date/timePositionNaut miles runAvg speedWind from/ knotsBaromVisibWave heightAir tempDewpointWater temp
2018-Feb-19 16:08N 22°50' E 116°51'411.4
2018-Feb-19 15:48N 22°52' E 116°55'4211.7
2018-Feb-19 12:11N 23°17' E 117°32'212.5
2018-Feb-19 12:00N 23°18' E 117°34'612.3
2018-Feb-19 11:31N 23°22' E 117°39'712.7
2018-Feb-19 10:58N 23°26' E 117°45'712.8
2018-Feb-19 10:27N 23°30' E 117°51'612.7
2018-Feb-19 10:01N 23°34' E 117°56'713.1
2018-Feb-19 09:31N 23°38' E 118°01'713.2
2018-Feb-19 09:01N 23°42' E 118°07'713.1
2018-Feb-19 08:30N 23°46' E 118°13'813.0
2018-Feb-19 07:54N 23°50' E 118°20'513.0
2018-Feb-19 07:30N 23°54' E 118°24'612.9
2018-Feb-19 07:01N 23°58' E 118°29'712.9
2018-Feb-19 06:30N 24°02' E 118°35'712.7
2018-Feb-19 05:59N 24°06' E 118°41'612.3
2018-Feb-19 05:30N 24°09' E 118°46'612.3
2018-Feb-19 05:01N 24°13' E 118°51'612.3
2018-Feb-19 04:30N 24°17' E 118°57'611.8
2018-Feb-19 04:01N 24°21' E 119°01'  
2018-Feb-15 08:52N 36°01' E 120°13'0 0.0
2018-Feb-15 08:28N 36°01' E 120°13'0 0.0
2018-Feb-15 07:19N 36°01' E 120°13'0 0.0
2018-Feb-15 06:55N 36°01' E 120°13'0 0.0
2018-Feb-15 05:35N 36°01' E 120°13'0 0.0
2018-Feb-15 05:16N 36°01' E 120°13'0 0.0
2018-Feb-15 04:42N 36°01' E 120°13'0 0.0
2018-Feb-15 03:08N 36°01' E 120°13'0 0.0
2018-Feb-15 02:54N 36°01' E 120°13'0 0.0
2018-Feb-15 01:44N 36°01' E 120°13'0 0.0
2018-Feb-15 01:28N 36°01' E 120°13'0 0.0
2018-Feb-15 01:00N 36°01' E 120°13'0 0.0
2018-Feb-15 00:22N 36°01' E 120°13'0 0.0
2018-Feb-14 23:51N 36°01' E 120°13'0 0.0
2018-Feb-14 23:13N 36°01' E 120°13'0 0.0
2018-Feb-14 22:55N 36°01' E 120°13'0 0.0
2018-Feb-14 21:31N 36°01' E 120°13'0 0.0
2018-Feb-14 21:14N 36°01' E 120°13'0 0.0
2018-Feb-14 20:06N 36°01' E 120°13'0 0.6
2018-Feb-14 19:51N 36°01' E 120°13'3 5.9
2018-Feb-14 19:21N 36°02' E 120°16'610.7
2018-Feb-14 18:45N 36°01' E 120°24'  
2018-Feb-11 15:39N 38°36' E 121°20'110.3
2018-Feb-11 15:30N 38°37' E 121°21'510.7
2018-Feb-11 15:00N 38°40' E 121°27'511.0
2018-Feb-11 14:30N 38°43' E 121°33'611.3
2018-Feb-11 14:01N 38°46' E 121°39'611.2
2018-Feb-11 13:30N 38°50' E 121°45'3 0.1
2018-Feb-10 16:37N 38°50' E 121°48'1 9.1
2018-Feb-10 16:30N 38°49' E 121°49'6 9.0
2018-Feb-10 15:52N 38°45' E 121°54'3 8.8
2018-Feb-10 15:30N 38°42' E 121°56'4 8.7
2018-Feb-10 15:00N 38°39' E 121°59'4 8.4
2018-Feb-10 14:29N 38°35' E 122°03'  
Track history (hours):
 
Tides and Currents Weather Stations Pressure Air Temp Water Temp Dewpoint Dewpoint Depression Visibility Wind Speed Wind Dir Waves Ship Positions

Beautrophy

Last reported at 2018-Feb-19 16:08 UTC. Time now 2018-Feb-23 14:38 UTC.
Position N 22°50' E 116°51'.

Length 118 m; draft 4.9 m.

Type: Cargo ship. MMSI: 245916000.

Date/timePositionNaut miles runAvg speedWind from/ knotsBaromVisibWave heightAir tempDewpointWater temp
2018-Feb-19 16:08N 22°50' E 116°51'411.4
2018-Feb-19 15:48N 22°52' E 116°55'4211.7
2018-Feb-19 12:11N 23°17' E 117°32'212.5
2018-Feb-19 12:00N 23°18' E 117°34'612.3
2018-Feb-19 11:31N 23°22' E 117°39'712.7
2018-Feb-19 10:58N 23°26' E 117°45'712.8
2018-Feb-19 10:27N 23°30' E 117°51'612.7
2018-Feb-19 10:01N 23°34' E 117°56'713.1
2018-Feb-19 09:31N 23°38' E 118°01'713.2
2018-Feb-19 09:01N 23°42' E 118°07'713.1
2018-Feb-19 08:30N 23°46' E 118°13'813.0
2018-Feb-19 07:54N 23°50' E 118°20'513.0
2018-Feb-19 07:30N 23°54' E 118°24'612.9
2018-Feb-19 07:01N 23°58' E 118°29'712.9
2018-Feb-19 06:30N 24°02' E 118°35'712.7
2018-Feb-19 05:59N 24°06' E 118°41'612.3
2018-Feb-19 05:30N 24°09' E 118°46'612.3
2018-Feb-19 05:01N 24°13' E 118°51'612.3
2018-Feb-19 04:30N 24°17' E 118°57'611.8
2018-Feb-19 04:01N 24°21' E 119°01'  
2018-Feb-15 08:52N 36°01' E 120°13'0 0.0
2018-Feb-15 08:28N 36°01' E 120°13'0 0.0
2018-Feb-15 07:19N 36°01' E 120°13'0 0.0
2018-Feb-15 06:55N 36°01' E 120°13'0 0.0
2018-Feb-15 05:35N 36°01' E 120°13'0 0.0
2018-Feb-15 05:16N 36°01' E 120°13'0 0.0
2018-Feb-15 04:42N 36°01' E 120°13'0 0.0
2018-Feb-15 03:08N 36°01' E 120°13'0 0.0
2018-Feb-15 02:54N 36°01' E 120°13'0 0.0
2018-Feb-15 01:44N 36°01' E 120°13'0 0.0
2018-Feb-15 01:28N 36°01' E 120°13'0 0.0
2018-Feb-15 01:00N 36°01' E 120°13'0 0.0
2018-Feb-15 00:22N 36°01' E 120°13'0 0.0
2018-Feb-14 23:51N 36°01' E 120°13'0 0.0
2018-Feb-14 23:13N 36°01' E 120°13'0 0.0
2018-Feb-14 22:55N 36°01' E 120°13'0 0.0
2018-Feb-14 21:31N 36°01' E 120°13'0 0.0
2018-Feb-14 21:14N 36°01' E 120°13'0 0.0
2018-Feb-14 20:06N 36°01' E 120°13'0 0.6
2018-Feb-14 19:51N 36°01' E 120°13'3 5.9
2018-Feb-14 19:21N 36°02' E 120°16'610.7
2018-Feb-14 18:45N 36°01' E 120°24'  
2018-Feb-11 15:39N 38°36' E 121°20'110.3
2018-Feb-11 15:30N 38°37' E 121°21'510.7
2018-Feb-11 15:00N 38°40' E 121°27'511.0
2018-Feb-11 14:30N 38°43' E 121°33'611.3
2018-Feb-11 14:01N 38°46' E 121°39'611.2
2018-Feb-11 13:30N 38°50' E 121°45'3 0.1
2018-Feb-10 16:37N 38°50' E 121°48'1 9.1
2018-Feb-10 16:30N 38°49' E 121°49'6 9.0
2018-Feb-10 15:52N 38°45' E 121°54'3 8.8
2018-Feb-10 15:30N 38°42' E 121°56'4 8.7
2018-Feb-10 15:00N 38°39' E 121°59'4 8.4
2018-Feb-10 14:29N 38°35' E 122°03'  

Dump ship's entire track history